Time;durP1;ratioP1;P1;durP2;ratioP2;P2;SDS_P1;SDS_P2;PMS_P1;PMS_P2;Temp;Humidity;BMP_temperature;BMP_pressure;BME280_temperature;BME280_humidity;BME280_pressure;Samples;Min_cycle;Max_cycle;Signal;HPM_P1;HPM_P2
2021/05/01 00:01:19;;;;;;;20.67;9.02;;;;;;;;;;5046116;28;20041;-48
2021/05/01 00:03:46;;;;;;;16.63;8.63;;;;;;;;;;5035235;28;20049;-52
2021/05/01 00:06:12;;;;;;;22.33;8.50;;;;;;;;;;5046197;28;20037;-50
2021/05/01 00:08:38;;;;;;;19.58;7.95;;;;;;;;;;5039649;28;20052;-53
2021/05/01 00:11:04;;;;;;;16.38;8.07;;;;;;;;;;5043731;28;20041;-51
2021/05/01 00:13:31;;;;;;;19.48;9.15;;;;;;;;;;5043048;28;20061;-55
2021/05/01 00:15:59;;;;;;;19.00;8.88;;;;;;;;;;5064015;28;20041;-49
2021/05/01 00:18:25;;;;;;;19.70;8.20;;;;;;;;;;5038238;28;20093;-51
2021/05/01 00:20:53;;;;;;;15.38;7.53;;;;;;;;;;5043047;28;20048;-51
2021/05/01 00:23:20;;;;;;;17.15;7.93;;;;;;;;;;5042593;28;20094;-51
2021/05/01 00:25:46;;;;;;;14.60;7.63;;;;;;;;;;5042779;28;20041;-54
2021/05/01 00:28:12;;;;;;;21.80;7.85;;;;;;;;;;5041371;28;20049;-48
2021/05/01 00:30:38;;;;;;;13.55;7.55;;;;;;;;;;5045224;28;20036;-49
2021/05/01 00:33:04;;;;;;;16.65;6.85;;;;;;;;;;5046971;28;20159;-48
2021/05/01 00:35:30;;;;;;;17.98;7.53;;;;;;;;;;5044423;28;20044;-49
2021/05/01 00:37:57;;;;;;;15.88;7.38;;;;;;;;;;5065322;28;20045;-49
2021/05/01 00:40:26;;;;;;;12.77;6.43;;;;;;;;;;5044065;28;20041;-53
2021/05/01 00:42:53;;;;;;;15.27;6.15;;;;;;;;;;5078516;28;20056;-50
2021/05/01 00:45:19;;;;;;;14.63;5.28;;;;;;;;;;5042113;28;20037;-52
2021/05/01 00:47:47;;;;;;;21.27;6.13;;;;;;;;;;5045389;28;20037;-51
2021/05/01 00:50:14;;;;;;;14.25;5.68;;;;;;;;;;5040289;28;20047;-46
2021/05/01 00:52:40;;;;;;;13.95;5.18;;;;;;;;;;5045993;28;20057;-48
2021/05/01 00:55:08;;;;;;;12.73;5.80;;;;;;;;;;5059595;28;20056;-48
2021/05/01 00:57:36;;;;;;;11.43;5.47;;;;;;;;;;5046270;28;20037;-53
2021/05/01 01:00:03;;;;;;;16.55;5.28;;;;;;;;;;5050317;28;20033;-51
2021/05/01 01:02:29;;;;;;;11.27;4.97;;;;;;;;;;5039890;28;20494;-51
2021/05/01 01:04:55;;;;;;;12.13;4.85;;;;;;;;;;5037791;28;20048;-50
2021/05/01 01:07:23;;;;;;;16.75;5.57;;;;;;;;;;5043006;28;20053;-49
2021/05/01 01:09:49;;;;;;;12.43;5.15;;;;;;;;;;5039927;28;20059;-53
2021/05/01 01:12:17;;;;;;;15.98;5.18;;;;;;;;;;5044900;28;20055;-54
2021/05/01 01:14:43;;;;;;;9.85;4.82;;;;;;;;;;5043945;28;20133;-49
2021/05/01 01:17:09;;;;;;;10.82;4.55;;;;;;;;;;5040797;28;20049;-49
2021/05/01 01:19:38;;;;;;;15.65;5.45;;;;;;;;;;5045047;28;20055;-53
2021/05/01 01:22:05;;;;;;;11.93;4.55;;;;;;;;;;5039677;28;20045;-53
2021/05/01 01:24:32;;;;;;;10.25;4.40;;;;;;;;;;5025240;28;20049;-55
2021/05/01 01:26:59;;;;;;;14.38;4.82;;;;;;;;;;5055741;28;20371;-51
2021/05/01 01:29:25;;;;;;;10.38;4.28;;;;;;;;;;5044834;28;20119;-51
2021/05/01 01:31:51;;;;;;;12.88;4.28;;;;;;;;;;5037721;28;20041;-53
2021/05/01 01:34:17;;;;;;;11.63;4.10;;;;;;;;;;5041339;28;20077;-54
2021/05/01 01:36:44;;;;;;;19.30;4.60;;;;;;;;;;5042775;28;20039;-51
2021/05/01 01:39:10;;;;;;;14.35;4.70;;;;;;;;;;5043754;28;20040;-48
2021/05/01 01:41:37;;;;;;;9.82;4.40;;;;;;;;;;5038086;28;20124;-49
2021/05/01 01:44:03;;;;;;;11.15;4.53;;;;;;;;;;5042095;28;20037;-52
2021/05/01 01:46:29;;;;;;;12.00;4.35;;;;;;;;;;5041703;28;20048;-47
2021/05/01 01:48:55;;;;;;;12.68;4.60;;;;;;;;;;5046002;28;20056;-50
2021/05/01 01:51:21;;;;;;;12.75;4.57;;;;;;;;;;5040709;28;20037;-53
2021/05/01 01:53:47;;;;;;;8.88;4.30;;;;;;;;;;5063497;28;20093;-50
2021/05/01 01:56:14;;;;;;;11.93;4.50;;;;;;;;;;5045250;28;20143;-47
2021/05/01 01:58:41;;;;;;;8.65;4.30;;;;;;;;;;5036756;28;20053;-50
2021/05/01 02:01:09;;;;;;;13.82;4.82;;;;;;;;;;5041170;28;20052;-48
2021/05/01 02:03:35;;;;;;;10.20;5.07;;;;;;;;;;5041714;28;20053;-49
2021/05/01 02:06:04;;;;;;;9.18;4.82;;;;;;;;;;5044845;28;20029;-47
2021/05/01 02:08:30;;;;;;;;;;;;;;;;;;5039677;28;20059;-56
2021/05/01 02:10:56;;;;;;;11.23;4.47;;;;;;;;;;5060273;28;19925;-50
2021/05/01 02:13:22;;;;;;;12.10;5.32;;;;;;;;;;5038676;28;20032;-51
2021/05/01 02:15:49;;;;;;;13.10;4.88;;;;;;;;;;5041726;28;20098;-51
2021/05/01 02:18:15;;;;;;;11.00;4.80;;;;;;;;;;5038170;28;20036;-52
2021/05/01 02:20:41;;;;;;;10.63;5.13;;;;;;;;;;5041374;28;20151;-53
2021/05/01 02:23:07;;;;;;;11.13;5.18;;;;;;;;;;5056578;28;20076;-51
2021/05/01 02:25:33;;;;;;;12.93;5.10;;;;;;;;;;5041268;28;20125;-48
2021/05/01 02:28:01;;;;;;;12.18;5.57;;;;;;;;;;5037965;28;20041;-50
2021/05/01 02:30:28;;;;;;;11.98;4.85;;;;;;;;;;5060360;28;20051;-50
2021/05/01 02:32:56;;;;;;;10.57;5.25;;;;;;;;;;5038475;28;20364;-53
2021/05/01 02:35:23;;;;;;;17.10;5.28;;;;;;;;;;5041855;28;20051;-50
2021/05/01 02:37:49;;;;;;;12.82;5.03;;;;;;;;;;5043011;28;20118;-50
2021/05/01 02:40:16;;;;;;;10.88;5.22;;;;;;;;;;5038601;28;20061;-52
2021/05/01 02:42:43;;;;;;;13.32;5.38;;;;;;;;;;5043627;28;20049;-57
2021/05/01 02:45:09;;;;;;;12.10;5.50;;;;;;;;;;5038906;28;20032;-55
2021/05/01 02:47:37;;;;;;;12.75;5.47;;;;;;;;;;5042293;28;20037;-50
2021/05/01 02:50:05;;;;;;;10.50;5.25;;;;;;;;;;5056058;28;20101;-52
2021/05/01 02:52:31;;;;;;;15.70;5.70;;;;;;;;;;5059093;28;20511;-56
2021/05/01 02:54:57;;;;;;;12.00;5.53;;;;;;;;;;5036368;28;20041;-48
2021/05/01 02:57:23;;;;;;;12.73;5.28;;;;;;;;;;5023506;28;20038;-50
2021/05/01 02:59:49;;;;;;;10.85;5.70;;;;;;;;;;5024253;28;20049;-50
2021/05/01 03:02:15;;;;;;;14.95;6.18;;;;;;;;;;5040873;28;20091;-50
2021/05/01 03:04:41;;;;;;;11.45;5.75;;;;;;;;;;5038690;28;20037;-50
2021/05/01 03:07:08;;;;;;;15.02;5.78;;;;;;;;;;5040928;28;20065;-53
2021/05/01 03:09:34;;;;;;;17.63;6.22;;;;;;;;;;5039866;28;20045;-50
2021/05/01 03:12:00;;;;;;;12.32;5.72;;;;;;;;;;5044075;28;20104;-50
2021/05/01 03:14:26;;;;;;;15.65;6.18;;;;;;;;;;5042663;28;20057;-52
2021/05/01 03:16:53;;;;;;;13.10;6.20;;;;;;;;;;5039342;28;20041;-54
2021/05/01 03:19:19;;;;;;;12.63;6.53;;;;;;;;;;5023158;28;20045;-53
2021/05/01 03:21:45;;;;;;;12.90;6.30;;;;;;;;;;5058820;28;20056;-46
2021/05/01 03:24:12;;;;;;;11.27;5.75;;;;;;;;;;5065465;28;20047;-50
2021/05/01 03:26:39;;;;;;;12.23;6.20;;;;;;;;;;5039927;28;20049;-49
2021/05/01 03:29:05;;;;;;;15.13;5.95;;;;;;;;;;5043886;28;20044;-52
2021/05/01 03:31:31;;;;;;;16.40;6.10;;;;;;;;;;5043345;28;20049;-50
2021/05/01 03:33:57;;;;;;;10.52;5.82;;;;;;;;;;5049005;28;20041;-49
2021/05/01 03:36:24;;;;;;;16.23;5.93;;;;;;;;;;5046296;28;20121;-45
2021/05/01 03:38:49;;;;;;;11.95;6.00;;;;;;;;;;5063146;28;20048;-47
2021/05/01 03:41:16;;;;;;;12.38;5.90;;;;;;;;;;5042976;28;20155;-49
2021/05/01 03:43:42;;;;;;;11.75;5.63;;;;;;;;;;5046366;28;20051;-48
2021/05/01 03:46:08;;;;;;;12.88;6.03;;;;;;;;;;5039726;28;20041;-50
2021/05/01 03:48:34;;;;;;;11.13;6.05;;;;;;;;;;5043797;28;20053;-50
2021/05/01 03:51:07;;;;;;;12.85;6.47;;;;;;;;;;5040110;28;20134;-49
2021/05/01 03:53:33;;;;;;;14.07;6.13;;;;;;;;;;5063803;28;20052;-51
2021/05/01 03:56:03;;;;;;;12.70;6.00;;;;;;;;;;5043589;28;20042;-54
2021/05/01 03:58:30;;;;;;;17.30;6.20;;;;;;;;;;5040673;28;20547;-50
2021/05/01 04:00:56;;;;;;;15.23;5.68;;;;;;;;;;5025556;28;20037;-52
2021/05/01 04:03:21;;;;;;;14.98;6.20;;;;;;;;;;5034890;28;20041;-53
2021/05/01 04:05:50;;;;;;;10.57;5.15;;;;;;;;;;5042496;28;20123;-49
2021/05/01 04:08:16;;;;;;;10.80;5.85;;;;;;;;;;5038409;28;20049;-48
2021/05/01 04:10:42;;;;;;;11.75;5.75;;;;;;;;;;5043111;28;20114;-52
2021/05/01 04:13:08;;;;;;;10.93;5.40;;;;;;;;;;5039032;28;20056;-52
2021/05/01 04:15:36;;;;;;;13.30;5.28;;;;;;;;;;5041714;28;20037;-50
2021/05/01 04:18:02;;;;;;;16.97;5.77;;;;;;;;;;5038839;28;20045;-51
2021/05/01 04:20:28;;;;;;;14.27;5.45;;;;;;;;;;5042292;28;20065;-50
2021/05/01 04:22:54;;;;;;;12.45;5.53;;;;;;;;;;5042816;28;20079;-56
2021/05/01 04:25:19;;;;;;;11.55;5.47;;;;;;;;;;5042481;28;20124;-48
2021/05/01 04:27:45;;;;;;;9.73;5.13;;;;;;;;;;5023191;28;20041;-53
2021/05/01 04:30:13;;;;;;;11.23;5.30;;;;;;;;;;5043703;28;20049;-54
2021/05/01 04:32:40;;;;;;;12.10;4.93;;;;;;;;;;5041377;28;20045;-52
2021/05/01 04:35:06;;;;;;;12.80;5.43;;;;;;;;;;5060684;28;20147;-49
2021/05/01 04:37:33;;;;;;;13.30;5.38;;;;;;;;;;5045636;28;20040;-46
2021/05/01 04:39:59;;;;;;;14.57;5.72;;;;;;;;;;5037217;28;20052;-55
2021/05/01 04:42:25;;;;;;;15.20;5.55;;;;;;;;;;5045132;28;20028;-49
2021/05/01 04:44:51;;;;;;;11.63;5.47;;;;;;;;;;5039760;28;20072;-48
2021/05/01 04:47:17;;;;;;;15.60;6.38;;;;;;;;;;5060493;28;20040;-55
2021/05/01 04:49:44;;;;;;;15.38;5.82;;;;;;;;;;5039291;28;20114;-50
2021/05/01 04:52:10;;;;;;;13.68;6.00;;;;;;;;;;5043424;28;20052;-47
2021/05/01 04:54:36;;;;;;;12.45;5.88;;;;;;;;;;5039532;28;20061;-48
2021/05/01 04:57:03;;;;;;;11.85;6.15;;;;;;;;;;5042699;28;20029;-50
2021/05/01 04:59:29;;;;;;;18.02;6.70;;;;;;;;;;5057180;28;20045;-46
2021/05/01 05:01:55;;;;;;;13.45;6.72;;;;;;;;;;5044430;28;20172;-46
2021/05/01 05:04:20;;;;;;;12.77;6.72;;;;;;;;;;5039510;28;20037;-47
2021/05/01 05:06:48;;;;;;;12.88;6.30;;;;;;;;;;5041138;28;20061;-49
2021/05/01 05:09:14;;;;;;;17.35;6.72;;;;;;;;;;5038337;28;20146;-55
2021/05/01 05:11:40;;;;;;;16.60;7.18;;;;;;;;;;5058177;28;20413;-53
2021/05/01 05:14:06;;;;;;;14.93;7.00;;;;;;;;;;5036213;28;20037;-52
2021/05/01 05:16:32;;;;;;;17.75;7.50;;;;;;;;;;5040727;28;20036;-50
2021/05/01 05:18:58;;;;;;;15.05;6.15;;;;;;;;;;5058151;28;20048;-48
2021/05/01 05:21:24;;;;;;;14.90;6.85;;;;;;;;;;5040944;28;20067;-51
2021/05/01 05:23:51;;;;;;;12.32;6.50;;;;;;;;;;5041051;28;20128;-50
2021/05/01 05:26:17;;;;;;;13.43;6.75;;;;;;;;;;5035902;28;20025;-50
2021/05/01 05:28:43;;;;;;;16.95;6.68;;;;;;;;;;5043712;28;20045;-49
2021/05/01 05:31:09;;;;;;;16.98;7.68;;;;;;;;;;5038484;28;20040;-52
2021/05/01 05:33:35;;;;;;;18.67;6.78;;;;;;;;;;5037565;28;20052;-51
2021/05/01 05:36:03;;;;;;;16.95;8.23;;;;;;;;;;5039341;28;20126;-56
2021/05/01 05:38:29;;;;;;;18.13;7.88;;;;;;;;;;5039983;28;20045;-51
2021/05/01 05:40:56;;;;;;;16.67;8.60;;;;;;;;;;5040528;28;20133;-48
2021/05/01 05:43:22;;;;;;;19.75;7.85;;;;;;;;;;5026805;28;20207;-51
2021/05/01 05:45:48;;;;;;;19.90;8.27;;;;;;;;;;5038174;28;20045;-54
2021/05/01 05:48:14;;;;;;;24.73;10.65;;;;;;;;;;5041888;28;20053;-53
2021/05/01 05:50:42;;;;;;;35.00;12.80;;;;;;;;;;5037215;28;20367;-55
2021/05/01 05:53:08;;;;;;;19.88;10.15;;;;;;;;;;5042312;28;20064;-56
2021/05/01 05:55:34;;;;;;;21.55;8.70;;;;;;;;;;5042774;28;20041;-56
2021/05/01 05:58:01;;;;;;;16.98;8.02;;;;;;;;;;5039089;28;20117;-54
2021/05/01 06:00:27;;;;;;;21.85;8.70;;;;;;;;;;5042227;28;20037;-55
2021/05/01 06:02:53;;;;;;;18.25;7.10;;;;;;;;;;5036234;28;20039;-53
2021/05/01 06:05:20;;;;;;;15.43;7.50;;;;;;;;;;5038953;28;20037;-51
2021/05/01 06:07:48;;;;;;;22.77;8.82;;;;;;;;;;5033904;28;20057;-53
2021/05/01 06:10:14;;;;;;;18.58;7.57;;;;;;;;;;5036029;28;20090;-52
2021/05/01 06:12:40;;;;;;;14.45;7.28;;;;;;;;;;5033582;28;20042;-55
2021/05/01 06:15:09;;;;;;;19.05;7.75;;;;;;;;;;5039046;28;20119;-57
2021/05/01 06:17:36;;;;;;;20.50;8.02;;;;;;;;;;5034577;28;20033;-54
2021/05/01 06:20:03;;;;;;;16.02;7.57;;;;;;;;;;5039058;28;20061;-54
2021/05/01 06:22:29;;;;;;;18.50;7.55;;;;;;;;;;5034987;28;20376;-55
2021/05/01 06:24:55;;;;;;;18.42;7.45;;;;;;;;;;5033555;28;20052;-47
2021/05/01 06:27:22;;;;;;;16.67;7.13;;;;;;;;;;5031226;28;20067;-50
2021/05/01 06:29:49;;;;;;;20.08;7.45;;;;;;;;;;5042562;28;20134;-51
2021/05/01 06:32:16;;;;;;;16.35;7.10;;;;;;;;;;5038990;28;20048;-52
2021/05/01 06:34:45;;;;;;;22.48;7.00;;;;;;;;;;5041366;28;20052;-56
2021/05/01 06:37:15;;;;;;;22.88;7.50;;;;;;;;;;5030316;28;20057;-51
2021/05/01 06:39:41;;;;;;;17.13;7.68;;;;;;;;;;5034770;28;20041;-55
2021/05/01 06:42:11;;;;;;;19.02;8.07;;;;;;;;;;5036014;28;20052;-54
2021/05/01 06:44:39;;;;;;;20.85;8.85;;;;;;;;;;5031993;28;20326;-51
2021/05/01 06:47:10;;;;;;;36.87;15.70;;;;;;;;;;5038239;28;20053;-50
2021/05/01 06:49:41;;;;;;;19.67;8.73;;;;;;;;;;5032676;28;20290;-53
2021/05/01 06:52:07;;;;;;;16.98;6.97;;;;;;;;;;5038411;28;20048;-54
2021/05/01 06:54:33;;;;;;;14.32;6.50;;;;;;;;;;5034204;28;20073;-52
2021/05/01 06:57:02;;;;;;;14.77;5.95;;;;;;;;;;5037418;28;20056;-55
2021/05/01 06:59:28;;;;;;;19.15;6.22;;;;;;;;;;5034669;28;20044;-55
2021/05/01 07:01:54;;;;;;;14.85;6.45;;;;;;;;;;5035614;28;20041;-52
2021/05/01 07:04:21;;;;;;;13.20;5.78;;;;;;;;;;5033339;28;20135;-54
2021/05/01 07:06:49;;;;;;;14.77;6.45;;;;;;;;;;5037685;28;20041;-49
2021/05/01 07:09:15;;;;;;;14.40;5.85;;;;;;;;;;5031663;28;20048;-56
2021/05/01 07:11:43;;;;;;;12.20;5.25;;;;;;;;;;5037793;28;20037;-55
2021/05/01 07:14:09;;;;;;;12.27;5.75;;;;;;;;;;5032246;28;20135;-56
2021/05/01 07:16:36;;;;;;;17.80;5.82;;;;;;;;;;5037986;28;20049;-57
2021/05/01 07:19:02;;;;;;;17.80;6.28;;;;;;;;;;5033091;28;20033;-50
2021/05/01 07:21:28;;;;;;;11.73;5.70;;;;;;;;;;5030668;28;20061;-54
2021/05/01 07:23:55;;;;;;;11.00;5.20;;;;;;;;;;5036259;28;20056;-54
2021/05/01 07:26:23;;;;;;;16.20;5.22;;;;;;;;;;5014248;28;20046;-50
2021/05/01 07:28:50;;;;;;;11.23;4.93;;;;;;;;;;5022521;28;20053;-49
2021/05/01 07:31:17;;;;;;;11.13;5.13;;;;;;;;;;5020435;28;20037;-56
2021/05/01 07:33:45;;;;;;;12.05;5.00;;;;;;;;;;5014178;28;20049;-53
2021/05/01 07:36:13;;;;;;;15.30;5.13;;;;;;;;;;5019773;28;20044;-56
2021/05/01 07:38:42;;;;;;;9.45;4.05;;;;;;;;;;5023418;28;20480;-55
2021/05/01 07:41:08;;;;;;;;;;;;;;;;;;5037927;28;20049;-54
2021/05/01 07:43:36;;;;;;;12.60;4.20;;;;;;;;;;5021368;28;19931;-50
2021/05/01 07:46:06;;;;;;;12.90;4.40;;;;;;;;;;5018416;28;20099;-52
2021/05/01 07:48:33;;;;;;;22.42;4.68;;;;;;;;;;5023033;28;20037;-53
2021/05/01 07:50:58;;;;;;;11.40;4.60;;;;;;;;;;5019690;28;20041;-54
2021/05/01 07:53:25;;;;;;;14.82;5.88;;;;;;;;;;5024265;28;20049;-50
2021/05/01 07:55:53;;;;;;;17.42;7.07;;;;;;;;;;5020574;28;20069;-51
2021/05/01 07:58:19;;;;;;;14.75;3.88;;;;;;;;;;5040595;28;20037;-50
2021/05/01 08:00:47;;;;;;;9.60;3.50;;;;;;;;;;5038439;28;20078;-51
2021/05/01 08:03:13;;;;;;;12.07;3.75;;;;;;;;;;5039309;28;20043;-51
2021/05/01 08:05:39;;;;;;;11.38;3.72;;;;;;;;;;5039621;28;20029;-52
2021/05/01 08:08:05;;;;;;;12.43;3.88;;;;;;;;;;5038076;28;20062;-51
2021/05/01 08:10:31;;;;;;;8.73;3.65;;;;;;;;;;5041497;28;20037;-51
2021/05/01 08:12:57;;;;;;;8.90;3.70;;;;;;;;;;5025548;28;20040;-54
2021/05/01 08:15:25;;;;;;;9.98;3.63;;;;;;;;;;5025999;28;20043;-55
2021/05/01 08:17:52;;;;;;;8.98;3.90;;;;;;;;;;5021976;28;20052;-55
2021/05/01 08:20:18;;;;;;;10.48;3.55;;;;;;;;;;5025693;28;20045;-57
2021/05/01 08:22:44;;;;;;;9.82;3.67;;;;;;;;;;5026853;28;20068;-53
2021/05/01 08:25:11;;;;;;;7.03;3.42;;;;;;;;;;5042190;28;20048;-57
2021/05/01 08:27:38;;;;;;;7.78;3.28;;;;;;;;;;5040586;28;20091;-52
2021/05/01 08:30:05;;;;;;;14.93;3.33;;;;;;;;;;5040926;28;20052;-59
2021/05/01 08:32:31;;;;;;;9.18;3.20;;;;;;;;;;5039242;28;20113;-52
2021/05/01 08:34:58;;;;;;;9.60;3.88;;;;;;;;;;5041121;28;20045;-55
2021/05/01 08:37:27;;;;;;;11.80;3.95;;;;;;;;;;5038823;28;20044;-56
2021/05/01 08:39:53;;;;;;;16.40;4.10;;;;;;;;;;5041835;28;20066;-52
2021/05/01 08:42:19;;;;;;;9.20;3.25;;;;;;;;;;5038688;28;20053;-56
2021/05/01 08:44:47;;;;;;;8.15;3.13;;;;;;;;;;5042370;28;20089;-51
2021/05/01 08:47:14;;;;;;;7.90;3.30;;;;;;;;;;5041265;28;20065;-51
2021/05/01 08:49:40;;;;;;;8.27;3.80;;;;;;;;;;5022211;28;20057;-54
2021/05/01 08:52:09;;;;;;;12.85;3.40;;;;;;;;;;5032556;28;20037;-52
2021/05/01 08:54:35;;;;;;;14.52;4.70;;;;;;;;;;5038635;28;20033;-52
2021/05/01 08:57:02;;;;;;;13.32;5.72;;;;;;;;;;5041736;28;20071;-57
2021/05/01 08:59:32;;;;;;;9.93;4.20;;;;;;;;;;5036696;28;20045;-55
2021/05/01 09:02:01;;;;;;;8.93;3.55;;;;;;;;;;5040828;28;20033;-52
2021/05/01 09:04:44;;;;;;;12.80;3.30;;;;;;;;;;5038622;28;20045;-56
2021/05/01 09:07:11;;;;;;;8.88;2.78;;;;;;;;;;5043326;28;20041;-57
2021/05/01 09:09:39;;;;;;;12.15;3.05;;;;;;;;;;5030704;28;20041;-57
2021/05/01 09:12:05;;;;;;;6.27;2.80;;;;;;;;;;5026607;28;20037;-60
2021/05/01 09:14:31;;;;;;;10.35;3.65;;;;;;;;;;5007697;28;20337;-54
2021/05/01 09:16:59;;;;;;;6.85;2.90;;;;;;;;;;5013425;28;20105;-53
2021/05/01 09:19:35;;;;;;;5.15;2.63;;;;;;;;;;5023295;28;20041;-55
2021/05/01 09:22:01;;;;;;;10.02;2.88;;;;;;;;;;5041984;28;20056;-55
2021/05/01 09:24:28;;;;;;;7.07;2.40;;;;;;;;;;5035244;28;20022;-53
2021/05/01 09:26:56;;;;;;;8.82;2.90;;;;;;;;;;5027608;28;20045;-53
2021/05/01 09:29:40;;;;;;;5.97;2.80;;;;;;;;;;5041193;28;20065;-56
2021/05/01 09:32:07;;;;;;;8.48;2.80;;;;;;;;;;5032708;28;20088;-53
2021/05/01 09:34:40;;;;;;;7.00;2.90;;;;;;;;;;5037983;28;20037;-51
2021/05/01 09:37:07;;;;;;;7.03;2.85;;;;;;;;;;5042346;28;20065;-56
2021/05/01 09:39:34;;;;;;;7.53;2.63;;;;;;;;;;5038456;28;20037;-54
2021/05/01 09:42:12;;;;;;;6.47;2.65;;;;;;;;;;5021412;28;20054;-53
2021/05/01 09:44:38;;;;;;;;;;;;;;;;;;5021422;28;20030;-52
2021/05/01 09:47:10;;;;;;;7.50;2.97;;;;;;;;;;5018439;28;19921;-54
2021/05/01 09:49:37;;;;;;;7.68;2.60;;;;;;;;;;5037163;28;20069;-54
2021/05/01 09:52:05;;;;;;;8.73;2.50;;;;;;;;;;5021933;28;20059;-55
2021/05/01 09:54:32;;;;;;;8.07;3.35;;;;;;;;;;5017883;28;20050;-59
2021/05/01 09:57:05;;;;;;;9.05;2.97;;;;;;;;;;5033293;28;20053;-56
2021/05/01 09:59:35;;;;;;;6.07;2.70;;;;;;;;;;5041728;28;20033;-58
2021/05/01 10:02:05;;;;;;;8.65;2.40;;;;;;;;;;5037721;28;20029;-52
2021/05/01 10:04:31;;;;;;;7.32;2.80;;;;;;;;;;5040816;28;20041;-56
2021/05/01 10:06:59;;;;;;;7.03;2.17;;;;;;;;;;5052745;28;20037;-51
2021/05/01 10:09:26;;;;;;;10.18;2.60;;;;;;;;;;5041442;28;20051;-56
2021/05/01 10:11:53;;;;;;;5.43;2.17;;;;;;;;;;5035319;28;20049;-52
2021/05/01 10:14:33;;;;;;;7.63;2.20;;;;;;;;;;5030731;28;20057;-51
2021/05/01 10:17:05;;;;;;;3.75;1.95;;;;;;;;;;5007312;28;22331;-51
2021/05/01 10:19:50;;;;;;;7.22;2.10;;;;;;;;;;5024793;28;20041;-58
2021/05/01 10:22:35;;;;;;;3.80;1.92;;;;;;;;;;5030342;28;20095;-55
2021/05/01 10:25:02;;;;;;;10.10;3.10;;;;;;;;;;5059687;28;20055;-55
2021/05/01 10:27:40;;;;;;;6.35;2.53;;;;;;;;;;5037880;28;20041;-54
2021/05/01 10:30:14;;;;;;;7.55;2.60;;;;;;;;;;5023835;28;20041;-59
2021/05/01 10:32:45;;;;;;;6.47;1.92;;;;;;;;;;5030348;28;20065;-56
2021/05/01 10:35:12;;;;;;;8.05;2.53;;;;;;;;;;5014542;28;20098;-60
2021/05/01 10:37:42;;;;;;;5.63;2.30;;;;;;;;;;5020033;28;20037;-58
2021/05/01 10:40:09;;;;;;;7.68;2.40;;;;;;;;;;5026948;28;20029;-57
2021/05/01 10:42:35;;;;;;;5.40;1.70;;;;;;;;;;5034783;28;20037;-58
2021/05/01 10:45:02;;;;;;;4.07;1.90;;;;;;;;;;5023904;28;20041;-53
2021/05/01 10:47:30;;;;;;;5.90;1.95;;;;;;;;;;5021895;28;20053;-59
2021/05/01 10:49:58;;;;;;;4.50;1.80;;;;;;;;;;5023400;28;20041;-53
2021/05/01 10:52:27;;;;;;;4.50;1.90;;;;;;;;;;5040384;28;20095;-57
2021/05/01 10:54:57;;;;;;;5.03;2.22;;;;;;;;;;5023804;28;20034;-54
2021/05/01 10:57:24;;;;;;;6.68;2.45;;;;;;;;;;5024883;28;20129;-58
2021/05/01 10:59:57;;;;;;;9.80;2.45;;;;;;;;;;5013660;28;20042;-48
2021/05/01 11:02:32;;;;;;;5.03;2.25;;;;;;;;;;5025667;28;20123;-56
2021/05/01 11:04:59;;;;;;;6.63;2.13;;;;;;;;;;5020203;28;20056;-54
2021/05/01 11:07:34;;;;;;;4.55;1.83;;;;;;;;;;5021046;28;20037;-55
2021/05/01 11:10:03;;;;;;;4.00;1.77;;;;;;;;;;5019163;28;20044;-53
2021/05/01 11:12:31;;;;;;;6.15;2.20;;;;;;;;;;5028691;28;20042;-55
2021/05/01 11:15:00;;;;;;;6.10;2.47;;;;;;;;;;5023993;28;20041;-51
2021/05/01 11:17:34;;;;;;;7.22;2.70;;;;;;;;;;5022908;28;20045;-55
2021/05/01 11:20:02;;;;;;;7.45;2.30;;;;;;;;;;5030846;28;20097;-56
2021/05/01 11:22:28;;;;;;;5.32;2.10;;;;;;;;;;5041018;28;20056;-52
2021/05/01 11:24:55;;;;;;;5.43;1.95;;;;;;;;;;5033704;28;20053;-55
2021/05/01 11:27:23;;;;;;;7.72;1.92;;;;;;;;;;5042045;28;20029;-60
2021/05/01 11:29:50;;;;;;;5.45;1.95;;;;;;;;;;5037028;28;20081;-52
2021/05/01 11:32:17;;;;;;;6.13;2.03;;;;;;;;;;5041629;28;20060;-54
2021/05/01 11:34:46;;;;;;;4.43;1.90;;;;;;;;;;5037963;28;20052;-57
2021/05/01 11:37:13;;;;;;;5.75;1.98;;;;;;;;;;5041382;28;20049;-58
2021/05/01 11:39:40;;;;;;;5.90;2.20;;;;;;;;;;5037456;28;20045;-56
2021/05/01 11:42:06;;;;;;;8.75;2.30;;;;;;;;;;5058552;28;20045;-54
2021/05/01 11:44:32;;;;;;;5.20;2.30;;;;;;;;;;5040878;28;20037;-53
2021/05/01 11:47:05;;;;;;;4.50;2.00;;;;;;;;;;5042862;28;20135;-55
2021/05/01 11:49:33;;;;;;;6.72;2.20;;;;;;;;;;5043443;28;20052;-52
2021/05/01 11:51:59;;;;;;;;;;;;;;;;;;5058841;28;20064;-53
2021/05/01 11:54:33;;;;;;;5.20;2.10;;;;;;;;;;5035188;28;19921;-56
2021/05/01 11:57:02;;;;;;;4.32;2.00;;;;;;;;;;5038119;28;20044;-56
2021/05/01 11:59:28;;;;;;;4.85;1.90;;;;;;;;;;5045124;28;20171;-56
2021/05/01 12:02:00;;;;;;;4.93;2.03;;;;;;;;;;5039977;28;20045;-58
2021/05/01 12:04:41;;;;;;;8.15;2.33;;;;;;;;;;5043175;28;20029;-52
2021/05/01 12:07:10;;;;;;;7.55;2.70;;;;;;;;;;5041874;28;20049;-58
2021/05/01 12:09:40;;;;;;;8.48;3.08;;;;;;;;;;5045055;28;20038;-52
2021/05/01 12:12:08;;;;;;;6.90;2.70;;;;;;;;;;5028873;28;20037;-55
2021/05/01 12:14:35;;;;;;;7.05;2.28;;;;;;;;;;5025438;28;20029;-55
2021/05/01 12:17:11;;;;;;;5.72;2.10;;;;;;;;;;5040666;28;20041;-56
2021/05/01 12:19:40;;;;;;;5.40;2.28;;;;;;;;;;5042512;28;20041;-54
2021/05/01 12:22:21;;;;;;;7.03;1.90;;;;;;;;;;5039575;28;20037;-54
2021/05/01 12:24:48;;;;;;;7.70;2.22;;;;;;;;;;5041838;28;20045;-58
2021/05/01 12:27:39;;;;;;;7.30;2.13;;;;;;;;;;5033476;28;20041;-58
2021/05/01 12:30:06;;;;;;;4.35;2.10;;;;;;;;;;5027264;28;20033;-57
2021/05/01 12:32:32;;;;;;;4.78;1.98;;;;;;;;;;5012879;28;20089;-59
2021/05/01 12:35:02;;;;;;;3.65;1.90;;;;;;;;;;5038604;28;20050;-55
2021/05/01 12:37:28;;;;;;;8.45;2.00;;;;;;;;;;5043130;28;20144;-57
2021/05/01 12:40:01;;;;;;;5.03;1.92;;;;;;;;;;5042400;28;20123;-56
2021/05/01 12:42:28;;;;;;;6.63;1.88;;;;;;;;;;5038586;28;20125;-59
2021/05/01 12:44:55;;;;;;;4.60;2.00;;;;;;;;;;5042413;28;20053;-56
2021/05/01 12:47:42;;;;;;;7.38;2.13;;;;;;;;;;5037846;28;20048;-56
2021/05/01 12:50:15;;;;;;;4.53;2.05;;;;;;;;;;5024548;28;20093;-57
2021/05/01 12:52:42;;;;;;;7.25;2.30;;;;;;;;;;5037983;28;20029;-58
2021/05/01 12:55:10;;;;;;;3.97;1.58;;;;;;;;;;5032671;28;20041;-53
2021/05/01 12:57:37;;;;;;;6.95;1.67;;;;;;;;;;5040031;28;20070;-55
2021/05/01 13:00:23;;;;;;;4.30;1.90;;;;;;;;;;5041655;28;20138;-54
2021/05/01 13:03:14;;;;;;;5.80;2.03;;;;;;;;;;5022571;28;20122;-54
2021/05/01 13:05:41;;;;;;;4.93;1.77;;;;;;;;;;5040158;28;20091;-56
2021/05/01 13:08:07;;;;;;;4.93;1.83;;;;;;;;;;5036539;28;20041;-55
2021/05/01 13:10:34;;;;;;;3.75;1.80;;;;;;;;;;5042559;28;20038;-56
2021/05/01 13:13:02;;;;;;;4.15;1.80;;;;;;;;;;5021595;28;20046;-53
2021/05/01 13:15:29;;;;;;;4.80;1.77;;;;;;;;;;5041924;28;20044;-56
2021/05/01 13:18:06;;;;;;;4.05;1.52;;;;;;;;;;5038802;28;20599;-54
2021/05/01 13:20:32;;;;;;;3.80;1.55;;;;;;;;;;5020565;28;20217;-55
2021/05/01 13:23:00;;;;;;;5.20;1.80;;;;;;;;;;5020917;28;20060;-59
2021/05/01 13:25:28;;;;;;;4.13;1.77;;;;;;;;;;5036070;28;20041;-53
2021/05/01 13:27:56;;;;;;;7.18;2.92;;;;;;;;;;5042271;28;20483;-49
2021/05/01 13:30:24;;;;;;;8.80;3.38;;;;;;;;;;5041087;28;20030;-57
2021/05/01 13:32:53;;;;;;;9.75;2.55;;;;;;;;;;5041872;28;20037;-57
2021/05/01 13:35:19;;;;;;;4.55;1.73;;;;;;;;;;5038031;28;20060;-54
2021/05/01 13:37:45;;;;;;;5.68;2.17;;;;;;;;;;5042086;28;20046;-53
2021/05/01 13:40:18;;;;;;;4.80;2.03;;;;;;;;;;5029568;28;20052;-53
2021/05/01 13:42:44;;;;;;;4.78;2.10;;;;;;;;;;5058119;28;20089;-56
2021/05/01 13:45:13;;;;;;;4.03;1.88;;;;;;;;;;5036085;28;20041;-56
2021/05/01 13:47:39;;;;;;;;;;;;;;;;;;5042633;28;20126;-54
2021/05/01 13:50:08;;;;;;;3.72;1.83;;;;;;;;;;5033393;28;19928;-53
2021/05/01 13:52:35;;;;;;;6.10;1.85;;;;;;;;;;5024798;28;20049;-51
2021/05/01 13:55:16;;;;;;;4.78;1.80;;;;;;;;;;5034296;28;20033;-54
2021/05/01 13:57:42;;;;;;;7.10;1.60;;;;;;;;;;5040740;28;20041;-54
2021/05/01 14:00:10;;;;;;;7.50;2.08;;;;;;;;;;5036620;28;20052;-56
2021/05/01 14:02:37;;;;;;;2.53;1.52;;;;;;;;;;5045140;28;20033;-54
2021/05/01 14:05:04;;;;;;;4.35;1.70;;;;;;;;;;5025079;28;20044;-51
2021/05/01 14:07:31;;;;;;;6.30;1.60;;;;;;;;;;5061697;28;20045;-51
2021/05/01 14:09:57;;;;;;;6.97;2.13;;;;;;;;;;5042692;28;20056;-53
2021/05/01 14:12:27;;;;;;;4.72;1.70;;;;;;;;;;5059942;28;20240;-56
2021/05/01 14:14:54;;;;;;;5.13;1.92;;;;;;;;;;5043955;28;20045;-55
2021/05/01 14:17:24;;;;;;;3.42;1.70;;;;;;;;;;5041833;28;20047;-55
2021/05/01 14:19:54;;;;;;;3.63;1.52;;;;;;;;;;5062578;28;20041;-55
2021/05/01 14:22:19;;;;;;;4.20;1.88;;;;;;;;;;5042230;28;20045;-57
2021/05/01 14:24:45;;;;;;;5.03;1.92;;;;;;;;;;5042257;28;20052;-56
2021/05/01 14:27:12;;;;;;;5.97;1.90;;;;;;;;;;5039908;28;20102;-52
2021/05/01 14:29:38;;;;;;;3.35;1.80;;;;;;;;;;5043842;28;20052;-59
2021/05/01 14:32:09;;;;;;;3.58;1.92;;;;;;;;;;5040817;28;20037;-58
2021/05/01 14:34:35;;;;;;;4.72;1.70;;;;;;;;;;5033783;28;20093;-58
2021/05/01 14:37:03;;;;;;;5.05;2.20;;;;;;;;;;5038829;28;20036;-56
2021/05/01 14:39:29;;;;;;;6.65;1.65;;;;;;;;;;5043025;28;20096;-55